createdAt,value
2019-04-04T00:00:30.055Z,94497.37
2019-04-04T00:02:57.067Z,94498.02
2019-04-04T00:05:26.151Z,94491.37
2019-04-04T00:07:53.693Z,94479.56
2019-04-04T00:10:21.035Z,94477.92
2019-04-04T00:12:48.064Z,94476.83
2019-04-04T00:15:15.529Z,94476.69
2019-04-04T00:17:42.538Z,94466.99
2019-04-04T00:20:09.586Z,94464.09
2019-04-04T00:22:36.888Z,94461.19
2019-04-04T00:25:04.237Z,94456.96
2019-04-04T00:27:32.345Z,94452.13
2019-04-04T00:29:59.395Z,94450.55
2019-04-04T00:32:26.713Z,94457.50
2019-04-04T00:34:53.767Z,94458.30
2019-04-04T00:37:20.886Z,94455.89
2019-04-04T00:39:48.201Z,94455.89
2019-04-04T00:42:17.011Z,94459.28
2019-04-04T00:44:44.255Z,94459.45
2019-04-04T00:47:11.301Z,94460.12
2019-04-04T00:49:38.604Z,94455.60
2019-04-04T00:52:05.961Z,94451.72
2019-04-04T00:54:33.260Z,94456.41
2019-04-04T00:57:00.590Z,94449.45
2019-04-04T00:59:28.950Z,94442.64
2019-04-04T01:01:57.081Z,94435.02
2019-04-04T01:04:24.961Z,94424.22
2019-04-04T01:06:52.405Z,94418.75
2019-04-04T01:09:19.668Z,94417.48
2019-04-04T01:11:46.716Z,94411.34
2019-04-04T01:14:14.107Z,94402.80
2019-04-04T01:16:41.463Z,94399.44
2019-04-04T01:19:09.989Z,94401.92
2019-04-04T01:21:37.811Z,94387.47
2019-04-04T01:24:04.845Z,94376.37
2019-04-04T01:26:33.147Z,94370.77
2019-04-04T01:29:01.232Z,94383.39
2019-04-04T01:31:28.283Z,94382.76
2019-04-04T01:33:55.610Z,94375.49
2019-04-04T01:36:25.167Z,94374.34
2019-04-04T01:38:51.898Z,94373.38
2019-04-04T01:41:19.028Z,94368.88
2019-04-04T01:43:46.379Z,94360.49
2019-04-04T01:46:15.352Z,94363.25
2019-04-04T01:48:43.223Z,94351.95
2019-04-04T01:51:10.284Z,94331.14
2019-04-04T01:53:37.625Z,94327.12
2019-04-04T01:56:06.734Z,94323.75
2019-04-04T01:58:33.407Z,94311.55
2019-04-04T02:01:00.453Z,94311.08
2019-04-04T02:03:27.488Z,94302.72
2019-04-04T02:05:56.199Z,94299.81
2019-04-04T02:08:23.605Z,94304.98
2019-04-04T02:10:50.641Z,94301.42
2019-04-04T02:13:17.692Z,94292.89
2019-04-04T02:15:45.354Z,94288.56
2019-04-04T02:18:12.711Z,94285.02
2019-04-04T02:20:39.754Z,94292.94
2019-04-04T02:23:07.117Z,94306.00
2019-04-04T02:25:34.858Z,94303.56
2019-04-04T02:28:01.886Z,94295.16
2019-04-04T02:30:28.928Z,94273.99
2019-04-04T02:32:59.418Z,94266.24
2019-04-04T02:35:24.728Z,94259.52
2019-04-04T02:37:54.889Z,94275.52
2019-04-04T02:40:20.525Z,94280.84
2019-04-04T02:42:47.918Z,94286.31
2019-04-04T02:45:15.289Z,94283.37
2019-04-04T02:47:42.628Z,94270.75
2019-04-04T02:50:09.665Z,94262.20
2019-04-04T02:52:37.788Z,94277.72
2019-04-04T02:55:05.091Z,94281.91
2019-04-04T02:57:32.151Z,94274.02
2019-04-04T02:59:59.489Z,94248.02
2019-04-04T03:02:26.871Z,94247.82
2019-04-04T03:04:54.215Z,94247.53
2019-04-04T03:07:21.552Z,94261.10
2019-04-04T03:09:48.591Z,94270.58
2019-04-04T03:12:15.647Z,94258.62
2019-04-04T03:14:42.924Z,94248.94
2019-04-04T03:17:10.333Z,94255.86
2019-04-04T03:19:37.366Z,94261.34
2019-04-04T03:22:04.430Z,94238.24
2019-04-04T03:24:31.493Z,94212.84
2019-04-04T03:26:58.509Z,94209.68
2019-04-04T03:29:25.565Z,94218.29
2019-04-04T03:31:52.598Z,94227.02
2019-04-04T03:34:19.664Z,94220.19
2019-04-04T03:36:46.695Z,94216.86
2019-04-04T03:39:13.868Z,94205.72
2019-04-04T03:41:41.029Z,94189.82
2019-04-04T03:44:08.404Z,94193.90
2019-04-04T03:46:38.765Z,94201.33
2019-04-04T03:49:04.500Z,94227.48
2019-04-04T03:51:31.810Z,94214.36
2019-04-04T03:53:59.154Z,94199.89
2019-04-04T03:56:26.209Z,94190.67
2019-04-04T03:58:53.254Z,94187.26
2019-04-04T04:01:20.292Z,94177.62
2019-04-04T04:03:47.353Z,94168.18
2019-04-04T04:06:14.725Z,94160.64
2019-04-04T04:08:42.053Z,94156.13
2019-04-04T04:11:09.091Z,94155.53
2019-04-04T04:13:37.116Z,94156.51
2019-04-04T04:16:04.424Z,94157.14
2019-04-04T04:18:31.810Z,94156.97
2019-04-04T04:20:58.847Z,94145.86
2019-04-04T04:23:25.897Z,94144.92
2019-04-04T04:25:53.249Z,94148.84
2019-04-04T04:28:20.947Z,94146.78
2019-04-04T04:30:48.291Z,94147.64
2019-04-04T04:33:15.342Z,94144.74
2019-04-04T04:35:42.643Z,94140.70
2019-04-04T04:38:10.018Z,94140.67
2019-04-04T04:40:37.075Z,94141.16
2019-04-04T04:43:04.358Z,94133.76
2019-04-04T04:45:31.398Z,94131.95
2019-04-04T04:47:58.453Z,94121.77
2019-04-04T04:50:25.758Z,94116.72
2019-04-04T04:52:52.812Z,94110.61
2019-04-04T04:55:19.852Z,94105.79
2019-04-04T04:57:46.891Z,94106.91
2019-04-04T05:00:16.110Z,94105.62
2019-04-04T05:02:44.271Z,94112.88
2019-04-04T05:05:11.628Z,94119.16
2019-04-04T05:07:39.130Z,94115.88
2019-04-04T05:10:06.202Z,94110.38
2019-04-04T05:12:33.238Z,94110.86
2019-04-04T05:15:01.364Z,94104.09
2019-04-04T05:17:30.301Z,94095.96
2019-04-04T05:19:57.702Z,94101.69
2019-04-04T05:22:24.746Z,94098.58
2019-04-04T05:25:07.020Z,94103.22
2019-04-04T05:27:20.776Z,94100.80
2019-04-04T05:29:48.150Z,94089.39
2019-04-04T05:32:15.188Z,94078.35
2019-04-04T05:34:42.255Z,94067.27
2019-04-04T05:37:09.296Z,94062.01
2019-04-04T05:39:36.350Z,94064.73
2019-04-04T05:42:03.390Z,94066.33
2019-04-04T05:44:30.443Z,94059.34
2019-04-04T05:46:57.811Z,94062.91
2019-04-04T05:49:25.149Z,94062.69
2019-04-04T05:51:52.191Z,94065.09
2019-04-04T05:54:19.243Z,94063.39
2019-04-04T05:56:48.787Z,94063.91
2019-04-04T05:59:15.364Z,94061.89
2019-04-04T06:01:42.844Z,94051.08
2019-04-04T06:04:10.049Z,94046.84
2019-04-04T06:06:37.105Z,94047.09
2019-04-04T06:09:04.512Z,94049.09
2019-04-04T06:11:31.546Z,94050.02
2019-04-04T06:13:59.046Z,94052.48
2019-04-04T06:16:27.939Z,94060.43
2019-04-04T06:18:55.252Z,94048.87
2019-04-04T06:21:22.302Z,94044.31
2019-04-04T06:23:49.338Z,94047.80
2019-04-04T06:26:16.732Z,94049.35
2019-04-04T06:28:45.016Z,94045.96
2019-04-04T06:31:13.358Z,94044.48
2019-04-04T06:33:40.403Z,94047.25
2019-04-04T06:36:07.757Z,94054.27
2019-04-04T06:38:35.862Z,94039.55
2019-04-04T06:41:02.924Z,94043.13
2019-04-04T06:43:29.952Z,94046.94
2019-04-04T06:45:57.006Z,94056.69
2019-04-04T06:48:24.330Z,94056.81
2019-04-04T06:50:51.686Z,94072.71
2019-04-04T06:53:20.370Z,94074.31
2019-04-04T06:55:48.135Z,94061.50
2019-04-04T06:58:17.073Z,94066.49
2019-04-04T07:00:48.589Z,94061.00
2019-04-04T07:03:14.810Z,94063.10
2019-04-04T07:05:41.868Z,94057.67
2019-04-04T07:08:08.949Z,94064.88
2019-04-04T07:10:35.964Z,94063.72
2019-04-04T07:13:14.881Z,94067.97
2019-04-04T07:15:31.755Z,94062.84
2019-04-04T07:17:58.824Z,94057.55
2019-04-04T07:20:28.337Z,94058.84
2019-04-04T07:22:55.860Z,94053.66
2019-04-04T07:25:23.366Z,94059.08
2019-04-04T07:27:50.396Z,94068.54
2019-04-04T07:30:17.766Z,94070.20
2019-04-04T07:32:44.799Z,94076.30
2019-04-04T07:35:12.082Z,94082.95
2019-04-04T07:37:39.195Z,94086.78
2019-04-04T07:40:06.178Z,94088.07
2019-04-04T07:42:33.229Z,94103.55
2019-04-04T07:45:00.562Z,94102.25
2019-04-04T07:47:27.922Z,94121.73
2019-04-04T07:49:55.480Z,94125.61
2019-04-04T07:52:22.854Z,94122.53
2019-04-04T07:54:50.189Z,94116.30
2019-04-04T07:57:19.778Z,94111.66
2019-04-04T07:59:46.349Z,94113.31
2019-04-04T08:02:13.406Z,94111.22
2019-04-04T08:04:40.449Z,94109.30
2019-04-04T08:07:07.502Z,94114.92
2019-04-04T08:09:34.540Z,94114.56
2019-04-04T08:12:01.594Z,94118.00
2019-04-04T08:14:28.636Z,94115.59
2019-04-04T08:16:55.690Z,94129.73
2019-04-04T08:19:22.731Z,94138.78
2019-04-04T08:21:49.787Z,94133.83
2019-04-04T08:24:17.124Z,94130.66
2019-04-04T08:26:44.178Z,94143.19
2019-04-04T08:29:18.560Z,94137.20
2019-04-04T08:31:45.616Z,94120.70
2019-04-04T08:34:12.656Z,94121.73
2019-04-04T08:36:39.712Z,94134.26
2019-04-04T08:39:06.755Z,94144.38
2019-04-04T08:41:33.808Z,94142.84
2019-04-04T08:44:01.182Z,94141.14
2019-04-04T08:46:28.235Z,94142.56
2019-04-04T08:48:55.276Z,94126.97
2019-04-04T08:51:22.322Z,94132.16
2019-04-04T08:53:49.371Z,94134.80
2019-04-04T08:56:16.412Z,94129.34
2019-04-04T08:58:43.468Z,94136.90
2019-04-04T09:01:10.507Z,94119.26
2019-04-04T09:03:37.570Z,94118.15
2019-04-04T09:06:04.598Z,94128.45
2019-04-04T09:08:31.648Z,94131.71
2019-04-04T09:10:58.684Z,94112.89
2019-04-04T09:13:25.734Z,94116.28
2019-04-04T09:15:52.763Z,94109.50
2019-04-04T09:18:19.810Z,94109.13
2019-04-04T09:20:47.106Z,94107.15
2019-04-04T09:23:15.353Z,94095.67
2019-04-04T09:25:42.656Z,94106.72
2019-04-04T09:28:09.704Z,94106.06
2019-04-04T09:30:36.736Z,94102.58
2019-04-04T09:33:04.055Z,94111.94
2019-04-04T09:35:31.336Z,94102.75
2019-04-04T09:37:58.391Z,94111.99
2019-04-04T09:40:25.419Z,94112.69
2019-04-04T09:42:52.468Z,94100.01
2019-04-04T09:45:19.509Z,94101.66
2019-04-04T09:47:46.558Z,94096.56
2019-04-04T09:50:13.588Z,94099.88
2019-04-04T09:52:40.633Z,94107.05
2019-04-04T09:55:08.028Z,94111.28
2019-04-04T09:57:35.078Z,94114.21
2019-04-04T10:00:02.541Z,94117.03
2019-04-04T10:02:31.524Z,94116.92
2019-04-04T10:04:58.561Z,94125.70
2019-04-04T10:07:26.884Z,94125.98
2019-04-04T10:09:54.230Z,94138.16
2019-04-04T10:12:21.559Z,94149.14
2019-04-04T10:14:48.916Z,94160.41
2019-04-04T10:17:16.272Z,94150.59
2019-04-04T10:19:43.309Z,94153.47
2019-04-04T10:22:10.345Z,94151.48
2019-04-04T10:24:37.408Z,94150.22
2019-04-04T10:27:04.434Z,94161.09
2019-04-04T10:29:31.484Z,94168.75
2019-04-04T10:31:58.510Z,94175.49
2019-04-04T10:34:28.276Z,94169.27
2019-04-04T10:36:54.281Z,94166.18
2019-04-04T10:39:28.719Z,94160.42
2019-04-04T10:41:50.380Z,94163.33
2019-04-04T10:44:17.424Z,94154.25
2019-04-04T10:46:44.455Z,94142.41
2019-04-04T10:49:11.507Z,94129.97
2019-04-04T10:51:38.832Z,94126.57
2019-04-04T10:54:05.883Z,94127.52
2019-04-04T10:56:36.393Z,94128.42
2019-04-04T10:59:03.351Z,94144.67
2019-04-04T11:01:30.258Z,94157.83
2019-04-04T11:03:57.288Z,94161.00
2019-04-04T11:06:24.606Z,94157.46
2019-04-04T11:08:51.984Z,94161.63
2019-04-04T11:11:19.009Z,94163.13
2019-04-04T11:13:46.063Z,94155.78
2019-04-04T11:16:13.471Z,94149.63
2019-04-04T11:18:40.457Z,94148.95
2019-04-04T11:21:07.488Z,94151.78
2019-04-04T11:23:34.776Z,94147.13
2019-04-04T11:26:01.809Z,94147.24
2019-04-04T11:28:28.859Z,94139.26
2019-04-04T11:30:56.230Z,94134.02
2019-04-04T11:33:23.273Z,94142.08
2019-04-04T11:36:01.673Z,94134.41
2019-04-04T11:38:29.040Z,94149.91
2019-04-04T11:40:56.408Z,94158.92
2019-04-04T11:43:23.451Z,94183.27
2019-04-04T11:45:50.488Z,94192.09
2019-04-04T11:48:17.553Z,94196.57
2019-04-04T11:50:44.593Z,94184.14
2019-04-04T11:53:11.641Z,94177.66
2019-04-04T11:55:38.801Z,94188.50
2019-04-04T11:58:06.225Z,94191.28
2019-04-04T12:00:33.282Z,94199.94
2019-04-04T12:03:00.734Z,94198.58
2019-04-04T12:05:28.089Z,94204.52
2019-04-04T12:07:55.127Z,94201.13
2019-04-04T12:10:22.516Z,94195.89
2019-04-04T12:12:49.849Z,94199.07
2019-04-04T12:15:20.935Z,94222.09
2019-04-04T12:17:47.973Z,94222.48
2019-04-04T12:20:15.313Z,94215.76
2019-04-04T12:22:42.356Z,94210.98
2019-04-04T12:25:09.409Z,94215.30
2019-04-04T12:27:36.746Z,94223.36
2019-04-04T12:30:04.099Z,94240.38
2019-04-04T12:32:31.472Z,94259.02
2019-04-04T12:34:58.525Z,94254.19
2019-04-04T12:37:25.567Z,94261.09
2019-04-04T12:39:52.617Z,94270.23
2019-04-04T12:42:20.147Z,94265.48
2019-04-04T12:44:47.180Z,94270.23
2019-04-04T12:47:14.214Z,94286.58
2019-04-04T12:49:41.273Z,94298.88
2019-04-04T12:52:08.302Z,94297.45
2019-04-04T12:54:35.710Z,94295.34
2019-04-04T12:57:03.057Z,94295.72
2019-04-04T12:59:30.418Z,94298.18
2019-04-04T13:01:57.773Z,94293.61
2019-04-04T13:04:31.610Z,94295.90
2019-04-04T13:06:53.814Z,94296.33
2019-04-04T13:09:21.166Z,94296.77
2019-04-04T13:11:48.201Z,94301.91
2019-04-04T13:14:15.567Z,94308.52
2019-04-04T13:16:42.606Z,94309.98
2019-04-04T13:21:48.923Z,94312.05
2019-04-04T13:24:15.979Z,94322.09
2019-04-04T13:26:43.019Z,94316.77
2019-04-04T13:29:10.346Z,94320.34
2019-04-04T13:31:37.625Z,94324.63
2019-04-04T13:34:04.921Z,94322.22
2019-04-04T13:36:32.316Z,94329.77
2019-04-04T13:38:59.363Z,94357.49
2019-04-04T13:41:26.398Z,94362.58
2019-04-04T13:43:54.314Z,94371.50
2019-04-04T13:46:25.878Z,94357.93
2019-04-04T13:48:51.848Z,94348.45
2019-04-04T13:51:21.106Z,94355.81
2019-04-04T13:53:47.629Z,94352.94
2019-04-04T13:56:14.955Z,94349.69
2019-04-04T13:58:41.987Z,94344.79
2019-04-04T14:01:09.037Z,94344.97
2019-04-04T14:03:36.069Z,94349.34
2019-04-04T14:06:03.120Z,94345.67
2019-04-04T14:08:30.154Z,94344.79
2019-04-04T14:10:58.556Z,94350.20
2019-04-04T14:13:26.354Z,94352.36
2019-04-04T14:15:53.801Z,94371.11
2019-04-04T14:18:20.835Z,94393.20
2019-04-04T14:20:48.188Z,94404.64
2019-04-04T14:23:15.232Z,94405.76
2019-04-04T14:25:42.592Z,94419.22
2019-04-04T14:28:09.625Z,94438.29
2019-04-04T14:30:36.987Z,94432.81
2019-04-04T14:33:04.029Z,94423.16
2019-04-04T14:35:31.074Z,94418.58
2019-04-04T14:37:58.113Z,94414.87
2019-04-04T14:40:25.152Z,94411.69
2019-04-04T14:42:52.557Z,94400.84
2019-04-04T14:45:19.607Z,94380.49
2019-04-04T14:47:48.164Z,94396.39
2019-04-04T14:52:49.254Z,94418.41
2019-04-04T14:55:17.988Z,94419.84
2019-04-04T14:57:50.882Z,94431.83
2019-04-04T15:08:09.043Z,94468.63
2019-04-04T15:13:15.917Z,94463.45
2019-04-04T15:15:43.086Z,94469.07
2019-04-04T15:18:11.524Z,94467.48
2019-04-04T15:20:40.002Z,94464.58
2019-04-04T15:23:07.190Z,94465.91
2019-04-04T15:25:34.457Z,94476.43
2019-04-04T15:28:04.653Z,94474.33
2019-04-04T15:33:06.455Z,94471.62
2019-04-04T15:35:34.626Z,94478.30
2019-04-04T15:38:03.066Z,94470.84
2019-04-04T15:40:30.140Z,94473.09
2019-04-04T15:45:44.092Z,94463.96
2019-04-04T15:48:12.654Z,94453.13
2019-04-04T15:53:12.436Z,94454.59
2019-04-04T15:55:39.723Z,94467.82
2019-04-04T15:58:13.881Z,94462.50
2019-04-04T16:00:41.209Z,94467.78
2019-04-04T16:03:15.858Z,94481.52
2019-04-04T16:05:50.154Z,94495.72
2019-04-04T16:11:02.828Z,94475.69
2019-04-04T16:13:43.989Z,94488.94
2019-04-04T16:16:16.175Z,94479.91
2019-04-04T16:18:48.446Z,94474.12
2019-04-04T16:21:15.697Z,94475.02
2019-04-04T16:23:49.585Z,94483.11
2019-04-04T16:26:20.912Z,94490.40
2019-04-04T16:28:52.264Z,94482.19
2019-04-04T16:36:31.590Z,94482.52
2019-04-04T16:42:02.022Z,94498.37
2019-04-04T16:44:33.458Z,94499.34
2019-04-04T16:47:01.644Z,94499.01
2019-04-04T16:49:38.268Z,94497.88
2019-04-04T16:52:09.930Z,94497.23
2019-04-04T16:54:44.325Z,94500.94
2019-04-04T16:57:12.573Z,94514.66
2019-04-04T16:59:42.029Z,94515.33
2019-04-04T17:02:12.863Z,94524.55
2019-04-04T17:04:53.461Z,94535.05
2019-04-04T17:07:20.806Z,94549.27
2019-04-04T17:09:47.964Z,94564.46
2019-04-04T17:14:48.023Z,94570.13
2019-04-04T17:17:19.529Z,94570.62
2019-04-04T17:19:48.755Z,94576.76
2019-04-04T17:25:04.172Z,94567.08
2019-04-04T17:27:37.321Z,94570.15
2019-04-04T17:30:06.091Z,94578.55
2019-04-04T17:35:09.923Z,94584.20
2019-04-04T17:37:41.390Z,94582.27
2019-04-04T17:42:57.721Z,94591.63
2019-04-04T17:48:12.878Z,94599.70
2019-04-04T17:50:40.170Z,94603.59
2019-04-04T17:53:07.747Z,94599.88
2019-04-04T17:55:35.914Z,94599.39
2019-04-04T17:58:03.447Z,94607.30
2019-04-04T18:00:30.558Z,94614.56
2019-04-04T18:02:57.611Z,94611.98
2019-04-04T18:05:24.656Z,94615.08
2019-04-04T18:07:51.695Z,94632.81
2019-04-04T18:10:18.754Z,94629.30
2019-04-04T18:12:45.800Z,94641.86
2019-04-04T18:15:12.852Z,94642.17
2019-04-04T18:17:39.898Z,94640.41
2019-04-04T18:20:07.270Z,94639.27
2019-04-04T18:22:35.377Z,94645.89
2019-04-04T18:25:02.513Z,94650.41
2019-04-04T18:27:29.552Z,94653.00
2019-04-04T18:29:56.610Z,94654.29
2019-04-04T18:32:23.653Z,94637.66
2019-04-04T18:34:52.258Z,94645.28
2019-04-04T18:37:19.609Z,94656.88
2019-04-04T18:39:46.645Z,94671.41
2019-04-04T18:42:13.686Z,94663.82
2019-04-04T18:44:40.735Z,94660.30
2019-04-04T18:47:07.775Z,94664.01
2019-04-04T18:49:35.124Z,94672.41
2019-04-04T18:52:02.158Z,94675.80
2019-04-04T18:54:29.214Z,94674.82
2019-04-04T18:56:56.245Z,94665.30
2019-04-04T18:59:23.300Z,94667.08
2019-04-04T19:01:50.358Z,94681.61
2019-04-04T19:04:17.464Z,94688.70
2019-04-04T19:06:44.761Z,94679.66
2019-04-04T19:09:15.109Z,94693.06
2019-04-04T19:11:41.217Z,94703.06
2019-04-04T19:14:12.775Z,94726.31
2019-04-04T19:16:39.864Z,94729.87
2019-04-04T19:19:06.918Z,94726.79
2019-04-04T19:21:33.955Z,94744.39
2019-04-04T19:24:01.267Z,94752.78
2019-04-04T19:26:28.301Z,94751.00
2019-04-04T19:28:55.369Z,94755.03
2019-04-04T19:31:22.643Z,94752.28
2019-04-04T19:33:50.107Z,94754.86
2019-04-04T19:36:17.236Z,94759.05
2019-04-04T19:38:44.338Z,94762.91
2019-04-04T19:41:11.391Z,94766.16
2019-04-04T19:43:38.499Z,94749.20
2019-04-04T19:46:05.622Z,94737.58
2019-04-04T19:48:32.693Z,94737.25
2019-04-04T19:51:00.168Z,94730.30
2019-04-04T19:55:56.574Z,94741.09
2019-04-04T19:58:23.694Z,94741.92
2019-04-04T20:00:50.749Z,94737.23
2019-04-04T20:03:18.142Z,94723.69
2019-04-04T20:05:45.334Z,94727.55
2019-04-04T20:08:12.374Z,94721.91
2019-04-04T20:10:39.801Z,94724.66
2019-04-04T20:13:06.910Z,94732.72
2019-04-04T20:15:33.958Z,94736.77
2019-04-04T20:18:00.997Z,94737.73
2019-04-04T20:20:28.113Z,94747.25
2019-04-04T20:22:56.052Z,94746.12
2019-04-04T20:25:23.103Z,94758.09
2019-04-04T20:27:54.839Z,94748.09
2019-04-04T20:30:18.909Z,94750.02
2019-04-04T20:32:45.949Z,94756.80
2019-04-04T20:35:13.356Z,94751.15
2019-04-04T20:37:40.406Z,94752.59
2019-04-04T20:40:07.459Z,94763.73
2019-04-04T20:42:34.994Z,94774.08
2019-04-04T20:45:02.040Z,94775.05
2019-04-04T20:47:29.090Z,94777.30
2019-04-04T20:50:15.494Z,94780.04
2019-04-04T20:52:42.717Z,94781.33
2019-04-04T20:55:09.751Z,94775.05
2019-04-04T20:57:37.151Z,94777.95
2019-04-04T21:00:06.650Z,94774.39
2019-04-04T21:02:34.184Z,94775.05
2019-04-04T21:05:01.169Z,94775.70
2019-04-04T21:07:28.483Z,94776.17
2019-04-04T21:09:55.515Z,94776.50
2019-04-04T21:12:22.565Z,94778.61
2019-04-04T21:14:49.965Z,94787.00
2019-04-04T21:17:17.017Z,94784.73
2019-04-04T21:19:44.373Z,94792.97
2019-04-04T21:22:11.431Z,94795.37
2019-04-04T21:24:38.472Z,94803.30
2019-04-04T21:27:06.944Z,94801.52
2019-04-04T21:29:34.108Z,94807.66
2019-04-04T21:32:01.170Z,94797.95
2019-04-04T21:34:28.525Z,94808.28
2019-04-04T21:36:55.852Z,94808.28
2019-04-04T21:39:23.131Z,94806.66
2019-04-04T21:41:50.187Z,94806.67
2019-04-04T21:44:17.509Z,94799.73
2019-04-04T21:46:45.821Z,94798.27
2019-04-04T21:49:14.003Z,94805.05
2019-04-04T21:51:43.214Z,94801.02
2019-04-04T21:54:10.270Z,94798.12
2019-04-04T21:56:37.345Z,94799.91
2019-04-04T21:59:04.392Z,94803.61
2019-04-04T22:01:31.759Z,94803.77
2019-04-04T22:03:58.867Z,94809.58
2019-04-04T22:06:25.918Z,94808.29
2019-04-04T22:08:52.959Z,94812.95
2019-04-04T22:11:21.082Z,94819.43
2019-04-04T22:13:49.197Z,94820.41
2019-04-04T22:16:17.657Z,94823.64
2019-04-04T22:18:45.003Z,94827.53
2019-04-04T22:21:12.039Z,94829.30
2019-04-04T22:23:39.096Z,94833.99
2019-04-04T22:26:06.434Z,94838.83
2019-04-04T22:28:33.489Z,94838.17
2019-04-04T22:31:00.558Z,94839.45
2019-04-04T22:33:27.587Z,94830.74
2019-04-04T22:35:54.708Z,94827.36
2019-04-04T22:38:21.760Z,94825.75
2019-04-04T22:40:49.137Z,94837.05
2019-04-04T22:43:16.187Z,94838.81
2019-04-04T22:45:43.229Z,94836.89
2019-04-04T22:48:10.283Z,94839.63
2019-04-04T22:50:37.323Z,94839.13
2019-04-04T22:53:04.373Z,94837.68
2019-04-04T22:55:31.727Z,94838.97
2019-04-04T22:57:59.090Z,94835.09
2019-04-04T23:00:26.443Z,94841.23
2019-04-04T23:02:53.501Z,94845.75
2019-04-04T23:05:21.606Z,94838.81
2019-04-04T23:10:38.546Z,94833.34
2019-04-04T23:13:05.948Z,94830.27
2019-04-04T23:15:33.306Z,94822.20
2019-04-04T23:18:00.360Z,94828.83
2019-04-04T23:20:27.404Z,94818.33
2019-04-04T23:22:54.460Z,94819.29
2019-04-04T23:25:21.499Z,94824.78
2019-04-04T23:27:48.845Z,94821.39
2019-04-04T23:30:15.886Z,94825.11
2019-04-04T23:32:43.191Z,94831.73
2019-04-04T23:35:10.231Z,94829.96
2019-04-04T23:37:37.569Z,94835.78
2019-04-04T23:40:04.606Z,94836.43
2019-04-04T23:42:31.734Z,94840.30
2019-04-04T23:45:01.110Z,94833.37
2019-04-04T23:47:27.605Z,94842.08
2019-04-04T23:49:54.944Z,94837.73
2019-04-04T23:52:22.298Z,94838.38
2019-04-04T23:54:49.650Z,94832.89
2019-04-04T23:57:16.688Z,94832.41
2019-04-04T23:59:43.745Z,94827.58
